createdAt,value
2022-11-03T00:01:43.258Z,17.17
2022-11-03T00:04:14.030Z,17.30
2022-11-03T00:06:44.301Z,15.40
2022-11-03T00:09:16.135Z,15.82
2022-11-03T00:11:46.035Z,13.80
2022-11-03T00:14:16.535Z,13.20
2022-11-03T00:16:45.711Z,14.77
2022-11-03T00:19:16.379Z,11.60
2022-11-03T00:21:45.623Z,14.23
2022-11-03T00:24:14.990Z,15.15
2022-11-03T00:26:43.876Z,13.07
2022-11-03T00:29:14.197Z,19.02
2022-11-03T00:31:45.937Z,21.75
2022-11-03T00:34:14.646Z,13.23
2022-11-03T00:36:45.213Z,12.50
2022-11-03T00:39:14.572Z,12.73
2022-11-03T00:41:43.618Z,14.85
2022-11-03T00:44:13.617Z,15.40
2022-11-03T00:46:44.420Z,11.82
2022-11-03T00:49:13.040Z,15.40
2022-11-03T00:51:41.542Z,15.20
2022-11-03T00:54:10.662Z,14.60
2022-11-03T00:56:42.363Z,11.98
2022-11-03T00:59:11.870Z,11.80
2022-11-03T01:01:46.453Z,13.05
2022-11-03T01:04:35.832Z,14.05
2022-11-03T01:07:05.965Z,17.00
2022-11-03T01:09:38.132Z,13.45
2022-11-03T01:12:09.318Z,16.95
2022-11-03T01:14:40.520Z,13.02
2022-11-03T01:17:13.678Z,14.20
2022-11-03T01:19:44.645Z,14.50
2022-11-03T01:22:14.595Z,15.37
2022-11-03T01:24:44.574Z,11.10
2022-11-03T01:27:15.247Z,13.98
2022-11-03T01:29:44.228Z,12.77
2022-11-03T01:32:12.927Z,11.85
2022-11-03T01:34:41.760Z,12.55
2022-11-03T01:37:12.242Z,10.57
2022-11-03T01:39:41.046Z,12.48
2022-11-03T01:42:13.158Z,9.35
2022-11-03T01:44:44.852Z,13.63
2022-11-03T01:47:23.504Z,12.40
2022-11-03T01:49:55.749Z,8.55
2022-11-03T01:52:34.174Z,8.63
2022-11-03T01:55:06.757Z,8.23
2022-11-03T01:57:41.677Z,8.50
2022-11-03T02:00:11.618Z,9.48
2022-11-03T02:02:44.281Z,12.15
2022-11-03T02:05:15.042Z,8.90
2022-11-03T02:07:51.362Z,10.15
2022-11-03T02:10:20.251Z,9.52
2022-11-03T02:12:50.436Z,8.48
2022-11-03T02:15:21.956Z,9.18
2022-11-03T02:17:53.660Z,10.93
2022-11-03T02:20:25.637Z,10.82
2022-11-03T02:23:20.104Z,8.45
2022-11-03T02:25:54.714Z,12.25
2022-11-03T02:28:26.177Z,10.95
2022-11-03T02:31:03.934Z,12.55
2022-11-03T02:33:41.230Z,8.32
2022-11-03T02:36:17.254Z,9.05
2022-11-03T02:38:50.509Z,11.85
2022-11-03T02:41:22.607Z,11.65
2022-11-03T02:43:52.588Z,12.27
2022-11-03T02:46:22.589Z,9.20
2022-11-03T02:48:52.404Z,11.38
2022-11-03T02:51:21.301Z,9.57
2022-11-03T02:54:02.912Z,10.80
2022-11-03T02:56:36.192Z,7.45
2022-11-03T02:59:10.274Z,10.82
2022-11-03T03:01:48.580Z,9.35
2022-11-03T03:04:25.512Z,9.15
2022-11-03T03:07:04.935Z,11.93
2022-11-03T03:09:43.615Z,11.23
2022-11-03T03:12:15.470Z,13.43
2022-11-03T03:17:19.702Z,12.30
2022-11-03T03:19:52.275Z,10.55
2022-11-03T03:22:26.671Z,10.32
2022-11-03T03:25:01.447Z,9.43
2022-11-03T03:27:35.734Z,8.27
2022-11-03T03:30:07.028Z,7.55
2022-11-03T03:32:40.699Z,11.43
2022-11-03T03:35:17.251Z,8.32
2022-11-03T03:37:49.682Z,10.10
2022-11-03T03:40:24.339Z,10.68
2022-11-03T03:42:54.899Z,8.77
2022-11-03T03:45:25.801Z,9.25
2022-11-03T03:47:57.774Z,10.43
2022-11-03T03:50:31.229Z,9.73
2022-11-03T03:53:04.160Z,6.95
2022-11-03T03:55:37.946Z,10.40
2022-11-03T03:58:09.747Z,9.20
2022-11-03T04:03:16.234Z,10.48
2022-11-03T04:05:45.923Z,10.73
2022-11-03T04:08:15.696Z,8.95
2022-11-03T04:11:06.039Z,12.35
2022-11-03T04:13:53.346Z,15.07
2022-11-03T04:16:39.397Z,11.23
2022-11-03T04:19:27.482Z,12.52
2022-11-03T04:22:14.252Z,9.02
2022-11-03T04:24:42.822Z,11.07
2022-11-03T04:27:31.762Z,12.60
2022-11-03T04:30:09.148Z,17.83
2022-11-03T04:32:38.259Z,10.73
2022-11-03T04:35:17.007Z,11.63
2022-11-03T04:37:47.785Z,8.60
2022-11-03T04:40:18.498Z,9.07
2022-11-03T04:42:47.678Z,10.25
2022-11-03T04:45:24.503Z,14.95
2022-11-03T04:47:54.697Z,11.60
2022-11-03T04:50:24.867Z,8.88
2022-11-03T04:52:57.793Z,13.70
2022-11-03T04:55:27.769Z,10.43
2022-11-03T04:58:00.070Z,12.07
2022-11-03T05:00:30.365Z,9.90
2022-11-03T05:02:59.207Z,10.85
2022-11-03T05:05:28.385Z,8.35
2022-11-03T05:07:59.565Z,8.80
2022-11-03T05:10:30.814Z,10.93
2022-11-03T05:13:02.093Z,11.15
2022-11-03T05:15:37.600Z,12.93
2022-11-03T05:18:19.298Z,10.70
2022-11-03T05:20:53.100Z,12.38
2022-11-03T05:23:24.583Z,18.55
2022-11-03T05:25:55.038Z,17.00
2022-11-03T05:28:27.790Z,14.63
2022-11-03T05:30:58.408Z,12.65
2022-11-03T05:33:29.910Z,12.63
2022-11-03T05:38:32.773Z,12.23
2022-11-03T05:41:02.771Z,10.50
2022-11-03T05:43:32.326Z,9.55
2022-11-03T05:48:41.851Z,9.63
2022-11-03T05:51:20.852Z,12.25
2022-11-03T05:53:55.097Z,9.98
2022-11-03T05:56:26.448Z,14.30
2022-11-03T05:58:57.734Z,11.43
2022-11-03T06:01:32.001Z,13.02
2022-11-03T06:04:02.794Z,12.82
2022-11-03T06:06:40.471Z,12.00
2022-11-03T06:09:17.851Z,13.18
2022-11-03T06:11:47.227Z,12.23
2022-11-03T06:14:24.034Z,16.02
2022-11-03T06:16:57.980Z,17.33
2022-11-03T06:19:30.777Z,13.57
2022-11-03T06:22:04.596Z,14.98
2022-11-03T06:24:40.124Z,12.70
2022-11-03T06:27:14.541Z,20.55
2022-11-03T06:29:46.724Z,18.10
2022-11-03T06:32:16.935Z,15.52
2022-11-03T06:34:50.728Z,13.73
2022-11-03T06:37:23.713Z,14.77
2022-11-03T06:39:59.328Z,15.15
2022-11-03T06:42:32.080Z,13.20
2022-11-03T06:45:13.653Z,13.30
2022-11-03T06:47:44.056Z,18.73
2022-11-03T06:50:23.977Z,18.05
2022-11-03T06:52:55.508Z,15.85
2022-11-03T06:55:27.798Z,20.40
2022-11-03T06:58:00.604Z,14.30
2022-11-03T07:00:36.881Z,18.98
2022-11-03T07:03:15.799Z,18.52
2022-11-03T07:05:46.684Z,27.63
2022-11-03T07:08:23.531Z,28.33
2022-11-03T07:10:58.835Z,34.72
2022-11-03T07:13:28.925Z,21.90
2022-11-03T07:15:57.985Z,24.90
2022-11-03T07:18:32.885Z,21.02
2022-11-03T07:21:26.120Z,16.38
2022-11-03T07:23:55.672Z,15.30
2022-11-03T07:26:24.445Z,11.30
2022-11-03T07:28:54.271Z,10.27
2022-11-03T07:31:26.682Z,12.45
2022-11-03T07:34:00.977Z,10.73
2022-11-03T07:36:33.590Z,12.32
2022-11-03T07:39:04.377Z,11.20
2022-11-03T07:41:35.029Z,16.77
2022-11-03T07:44:04.304Z,12.73
2022-11-03T07:46:33.349Z,10.07
2022-11-03T07:49:04.679Z,12.50
2022-11-03T07:51:35.063Z,13.27
2022-11-03T07:54:11.124Z,11.93
2022-11-03T07:56:44.410Z,11.73
2022-11-03T07:59:17.870Z,11.30
2022-11-03T08:01:51.043Z,10.95
2022-11-03T08:04:24.814Z,12.18
2022-11-03T08:06:57.452Z,12.70
2022-11-03T08:11:57.404Z,13.55
2022-11-03T08:14:27.487Z,13.73
2022-11-03T08:16:57.158Z,11.32
2022-11-03T08:19:27.771Z,10.68
2022-11-03T08:21:59.118Z,11.07
2022-11-03T08:24:31.496Z,9.85
2022-11-03T08:27:01.032Z,9.02
2022-11-03T08:29:29.857Z,14.10
2022-11-03T08:31:58.775Z,9.82
2022-11-03T08:34:29.412Z,12.75
2022-11-03T08:36:58.527Z,14.75
2022-11-03T08:39:27.470Z,8.95
2022-11-03T08:41:57.416Z,13.60
2022-11-03T08:44:26.557Z,9.80
2022-11-03T08:46:55.492Z,12.57
2022-11-03T08:49:24.656Z,8.63
2022-11-03T08:51:54.818Z,14.48
2022-11-03T08:54:23.917Z,11.98
2022-11-03T08:56:53.364Z,8.48
2022-11-03T08:59:22.438Z,14.32
2022-11-03T09:01:51.976Z,10.02
2022-11-03T09:04:21.447Z,12.73
2022-11-03T09:06:50.306Z,9.80
2022-11-03T09:12:10.950Z,11.40
2022-11-03T09:14:39.869Z,9.35
2022-11-03T09:17:09.542Z,10.20
2022-11-03T09:19:38.879Z,10.25
2022-11-03T09:22:07.767Z,8.27
2022-11-03T09:24:38.422Z,10.48
2022-11-03T09:27:07.659Z,8.80
2022-11-03T09:30:06.651Z,8.52
2022-11-03T09:32:26.425Z,6.47
2022-11-03T09:34:55.462Z,10.30
2022-11-03T09:37:25.278Z,16.63
2022-11-03T09:39:55.840Z,11.93
2022-11-03T09:42:27.354Z,7.13
2022-11-03T09:44:56.788Z,10.98
2022-11-03T09:47:29.500Z,7.70
2022-11-03T09:49:59.836Z,9.95
2022-11-03T09:52:29.542Z,10.35
2022-11-03T09:55:00.098Z,13.23
2022-11-03T09:57:29.759Z,8.32
2022-11-03T09:59:59.376Z,8.00
2022-11-03T10:02:31.327Z,8.20
2022-11-03T10:05:09.766Z,8.45
2022-11-03T10:07:40.209Z,11.75
2022-11-03T10:10:18.576Z,10.98
2022-11-03T10:12:50.194Z,8.82
2022-11-03T10:15:20.643Z,6.93
2022-11-03T10:17:50.742Z,8.10
2022-11-03T10:20:23.130Z,7.72
2022-11-03T10:22:54.803Z,9.63
2022-11-03T10:28:19.752Z,7.43
2022-11-03T10:31:13.600Z,9.63
2022-11-03T10:33:51.775Z,9.63
2022-11-03T10:36:26.259Z,10.60
2022-11-03T10:38:56.400Z,4.03
2022-11-03T10:41:28.760Z,6.85
2022-11-03T10:44:08.407Z,7.68
2022-11-03T10:46:50.246Z,3.90
2022-11-03T10:49:21.742Z,11.23
2022-11-03T10:51:53.690Z,9.85
2022-11-03T10:54:25.535Z,6.60
2022-11-03T10:56:57.061Z,7.18
2022-11-03T10:59:32.358Z,8.10
2022-11-03T11:02:02.115Z,6.80
2022-11-03T11:04:34.028Z,8.90
2022-11-03T11:09:32.651Z,10.15
2022-11-03T11:12:05.209Z,5.03
2022-11-03T11:14:39.817Z,6.97
2022-11-03T11:17:49.773Z,8.10
2022-11-03T11:20:33.804Z,7.03
2022-11-03T11:23:53.250Z,7.13
2022-11-03T11:26:33.637Z,5.97
2022-11-03T11:29:42.163Z,5.28
2022-11-03T11:32:53.626Z,4.28
2022-11-03T11:36:02.663Z,5.97
2022-11-03T11:38:58.773Z,6.88
2022-11-03T11:42:00.894Z,4.97
2022-11-03T11:44:59.145Z,4.95
2022-11-03T11:47:49.735Z,5.28
2022-11-03T11:50:32.041Z,6.10
2022-11-03T11:53:06.656Z,5.80
2022-11-03T11:55:42.546Z,5.35
2022-11-03T11:58:21.717Z,3.90
2022-11-03T12:01:01.137Z,4.15
2022-11-03T12:03:45.530Z,5.55
2022-11-03T12:06:15.023Z,6.88
2022-11-03T12:08:44.698Z,4.88
2022-11-03T12:11:15.147Z,8.02
2022-11-03T12:13:47.635Z,2.70
2022-11-03T12:16:34.280Z,2.60
2022-11-03T12:19:38.372Z,4.63
2022-11-03T12:22:09.526Z,2.70
2022-11-03T12:24:47.358Z,6.30
2022-11-03T12:27:40.933Z,6.25
2022-11-03T12:30:20.744Z,3.17
2022-11-03T12:32:50.021Z,4.30
2022-11-03T12:35:19.318Z,5.30
2022-11-03T12:37:48.269Z,8.73
2022-11-03T12:40:17.533Z,4.38
2022-11-03T12:42:48.045Z,4.82
2022-11-03T12:45:17.229Z,6.65
2022-11-03T12:47:46.442Z,5.60
2022-11-03T12:50:15.646Z,5.15
2022-11-03T12:52:44.486Z,3.97
2022-11-03T12:55:13.426Z,4.80
2022-11-03T12:57:42.997Z,4.38
2022-11-03T13:00:15.080Z,4.78
2022-11-03T13:02:44.573Z,4.40
2022-11-03T13:05:15.533Z,8.88
2022-11-03T13:07:44.528Z,4.45
2022-11-03T13:10:13.325Z,4.97
2022-11-03T13:12:42.383Z,3.63
2022-11-03T13:15:15.998Z,3.88
2022-11-03T13:18:07.581Z,4.88
2022-11-03T13:20:33.713Z,7.45
2022-11-03T13:23:02.923Z,2.47
2022-11-03T13:25:32.230Z,5.03
2022-11-03T13:28:03.480Z,3.47
2022-11-03T13:30:34.955Z,4.07
2022-11-03T13:33:05.336Z,5.80
2022-11-03T13:35:40.509Z,6.40
2022-11-03T13:38:09.812Z,4.53
2022-11-03T13:41:01.194Z,4.75
2022-11-03T13:43:30.209Z,5.53
2022-11-03T13:46:02.755Z,6.18
2022-11-03T13:51:21.655Z,4.78
2022-11-03T13:59:29.114Z,5.35
2022-11-03T14:04:49.399Z,8.77
2022-11-03T14:07:19.318Z,2.95
2022-11-03T14:09:48.463Z,3.38
2022-11-03T14:12:32.002Z,7.68
2022-11-03T14:15:03.697Z,5.20
2022-11-03T14:17:34.364Z,6.65
2022-11-03T14:20:04.807Z,6.45
2022-11-03T14:22:34.052Z,4.60
2022-11-03T14:25:03.046Z,3.92
2022-11-03T14:27:32.594Z,5.30
2022-11-03T14:30:02.060Z,3.92
2022-11-03T14:32:31.013Z,2.60
2022-11-03T14:35:04.850Z,8.35
2022-11-03T14:37:37.413Z,5.13
2022-11-03T14:40:08.247Z,7.47
2022-11-03T14:42:37.057Z,3.27
2022-11-03T14:45:07.708Z,3.47
2022-11-03T14:47:40.158Z,4.50
2022-11-03T14:50:11.269Z,5.28
2022-11-03T14:52:40.903Z,3.42
2022-11-03T14:55:11.113Z,3.70
2022-11-03T14:57:39.810Z,3.85
2022-11-03T15:00:11.421Z,8.55
2022-11-03T15:02:41.141Z,2.85
2022-11-03T15:05:32.547Z,7.85
2022-11-03T15:08:01.893Z,8.32
2022-11-03T15:10:31.885Z,6.47
2022-11-03T15:13:01.276Z,8.00
2022-11-03T15:15:30.287Z,7.65
2022-11-03T15:18:02.796Z,5.32
2022-11-03T15:20:35.749Z,6.47
2022-11-03T15:25:56.836Z,8.45
2022-11-03T15:28:26.252Z,5.82
2022-11-03T15:30:55.903Z,9.88
2022-11-03T15:33:26.168Z,14.75
2022-11-03T15:35:56.672Z,11.45
2022-11-03T15:38:28.420Z,10.60
2022-11-03T15:41:15.868Z,10.80
2022-11-03T15:43:46.233Z,9.52
2022-11-03T15:46:15.972Z,13.38
2022-11-03T15:48:45.520Z,13.38
2022-11-03T15:51:15.829Z,11.27
2022-11-03T15:53:47.743Z,14.65
2022-11-03T15:56:16.727Z,11.95
2022-11-03T15:58:45.798Z,11.73
2022-11-03T16:01:15.231Z,11.98
2022-11-03T16:03:44.794Z,14.15
2022-11-03T16:06:15.646Z,12.98
2022-11-03T16:08:44.489Z,12.98
2022-11-03T16:11:14.341Z,9.70
2022-11-03T16:13:43.839Z,7.75
2022-11-03T16:16:12.670Z,6.70
2022-11-03T16:18:41.361Z,11.30
2022-11-03T16:21:10.600Z,12.73
2022-11-03T16:23:41.315Z,11.00
2022-11-03T16:26:10.464Z,12.05
2022-11-03T16:28:39.284Z,12.93
2022-11-03T16:31:08.545Z,13.10
2022-11-03T16:33:37.389Z,15.73
2022-11-03T16:36:07.798Z,16.15
2022-11-03T16:38:36.718Z,11.95
2022-11-03T16:41:07.739Z,13.25
2022-11-03T16:43:38.378Z,17.42
2022-11-03T16:46:07.673Z,18.30
2022-11-03T16:48:36.764Z,13.85
2022-11-03T16:51:05.995Z,16.23
2022-11-03T16:53:35.555Z,13.93
2022-11-03T16:56:04.961Z,16.95
2022-11-03T16:58:35.250Z,21.73
2022-11-03T17:01:04.793Z,12.52
2022-11-03T17:03:33.771Z,18.00
2022-11-03T17:06:02.678Z,18.15
2022-11-03T17:08:51.942Z,15.48
2022-11-03T17:11:36.180Z,15.68
2022-11-03T17:14:08.951Z,13.90
2022-11-03T17:16:38.583Z,17.08
2022-11-03T17:19:07.778Z,16.58
2022-11-03T17:21:36.723Z,14.75
2022-11-03T17:24:06.837Z,13.90
2022-11-03T17:26:43.395Z,19.33
2022-11-03T17:29:19.084Z,18.95
2022-11-03T17:31:48.886Z,20.70
2022-11-03T17:34:20.889Z,16.13
2022-11-03T17:36:50.762Z,19.63
2022-11-03T17:39:24.731Z,22.33
2022-11-03T17:41:53.738Z,23.83
2022-11-03T17:44:23.939Z,16.30
2022-11-03T17:46:52.654Z,21.50
2022-11-03T17:49:22.087Z,17.75
2022-11-03T17:51:51.504Z,19.52
2022-11-03T17:54:20.292Z,15.52
2022-11-03T17:56:49.548Z,14.90
2022-11-03T17:59:19.494Z,18.83
2022-11-03T18:01:51.803Z,19.10
2022-11-03T18:04:21.114Z,16.25
2022-11-03T18:06:49.987Z,16.02
2022-11-03T18:09:18.912Z,15.45
2022-11-03T18:12:05.657Z,12.32
2022-11-03T18:14:34.314Z,11.65
2022-11-03T18:17:05.201Z,14.95
2022-11-03T18:19:39.430Z,11.02
2022-11-03T18:22:10.648Z,16.83
2022-11-03T18:24:39.514Z,14.35
2022-11-03T18:27:12.248Z,18.73
2022-11-03T18:29:40.950Z,16.70
2022-11-03T18:32:16.988Z,15.13
2022-11-03T18:34:46.721Z,15.18
2022-11-03T18:37:15.629Z,16.13
2022-11-03T18:39:44.265Z,13.35
2022-11-03T18:42:14.753Z,12.93
2022-11-03T18:44:44.706Z,15.18
2022-11-03T18:47:15.317Z,16.13
2022-11-03T18:49:44.994Z,13.35
2022-11-03T18:52:16.561Z,12.95
2022-11-03T18:54:52.849Z,17.90
2022-11-03T18:57:25.498Z,15.98
2022-11-03T18:59:57.731Z,14.52
2022-11-03T19:02:28.540Z,17.13
2022-11-03T19:04:57.731Z,19.20
2022-11-03T19:07:30.624Z,13.93
2022-11-03T19:10:00.136Z,16.80
2022-11-03T19:12:29.058Z,18.25
2022-11-03T19:14:57.685Z,15.50
2022-11-03T19:17:30.340Z,14.65
2022-11-03T19:19:59.567Z,15.18
2022-11-03T19:22:28.935Z,16.65
2022-11-03T19:24:58.501Z,18.15
2022-11-03T19:27:38.749Z,13.57
2022-11-03T19:30:10.407Z,18.95
2022-11-03T19:32:52.866Z,13.95
2022-11-03T19:35:56.194Z,17.33
2022-11-03T19:38:26.472Z,16.92
2022-11-03T19:41:12.569Z,21.73
2022-11-03T19:43:42.046Z,22.52
2022-11-03T19:46:19.576Z,18.63
2022-11-03T19:48:52.507Z,17.30
2022-11-03T19:51:22.390Z,14.93
2022-11-03T19:53:51.620Z,17.25
2022-11-03T19:56:21.354Z,20.20
2022-11-03T19:58:50.218Z,21.58
2022-11-03T20:01:19.198Z,22.30
2022-11-03T20:03:48.173Z,20.50
2022-11-03T20:06:19.555Z,24.70
2022-11-03T20:08:49.308Z,23.33
2022-11-03T20:11:18.914Z,21.25
2022-11-03T20:13:47.862Z,24.05
2022-11-03T20:16:18.293Z,26.58
2022-11-03T20:18:49.268Z,29.42
2022-11-03T20:21:22.657Z,25.02
2022-11-03T20:23:52.487Z,24.25
2022-11-03T20:26:24.086Z,28.65
2022-11-03T20:28:54.906Z,29.63
2022-11-03T20:31:24.457Z,36.22
2022-11-03T20:33:53.875Z,34.70
2022-11-03T20:36:24.645Z,27.90
2022-11-03T20:38:59.582Z,29.38
2022-11-03T20:41:30.307Z,27.10
2022-11-03T20:43:59.489Z,31.05
2022-11-03T20:46:30.414Z,27.52
2022-11-03T20:49:00.158Z,22.13
2022-11-03T20:51:34.540Z,29.55
2022-11-03T20:54:04.642Z,31.35
2022-11-03T20:56:34.132Z,30.05
2022-11-03T20:59:03.235Z,30.13
2022-11-03T21:01:35.603Z,22.95
2022-11-03T21:04:09.738Z,19.00
2022-11-03T21:06:44.013Z,20.42
2022-11-03T21:11:43.611Z,20.90
2022-11-03T21:14:24.084Z,19.00
2022-11-03T21:17:10.347Z,19.75
2022-11-03T21:19:56.859Z,18.27
2022-11-03T21:22:53.671Z,15.75
2022-11-03T21:25:25.140Z,17.88
2022-11-03T21:27:55.162Z,16.77
2022-11-03T21:30:24.886Z,16.85
2022-11-03T21:32:55.728Z,18.67
2022-11-03T21:35:24.960Z,15.53
2022-11-03T21:37:55.123Z,16.92
2022-11-03T21:40:24.061Z,21.40
2022-11-03T21:43:10.361Z,18.00
2022-11-03T21:45:42.311Z,19.27
2022-11-03T21:48:28.461Z,18.05
2022-11-03T21:51:02.402Z,19.52
2022-11-03T21:53:39.081Z,16.35
2022-11-03T21:56:14.328Z,19.50
2022-11-03T21:58:44.933Z,24.42
2022-11-03T22:01:14.519Z,19.23
2022-11-03T22:03:43.797Z,17.80
2022-11-03T22:06:13.014Z,19.25
2022-11-03T22:08:45.669Z,22.80
2022-11-03T22:11:23.663Z,20.10
2022-11-03T22:13:55.199Z,19.05
2022-11-03T22:16:41.055Z,18.98
2022-11-03T22:19:30.455Z,17.58
2022-11-03T22:22:17.338Z,19.73
2022-11-03T22:25:05.649Z,19.48
2022-11-03T22:27:35.673Z,18.85
2022-11-03T22:30:22.377Z,18.50
2022-11-03T22:32:52.137Z,20.27
2022-11-03T22:35:38.518Z,17.45
2022-11-03T22:38:09.307Z,16.88
2022-11-03T22:40:58.451Z,20.33
2022-11-03T22:43:44.946Z,18.25
2022-11-03T22:46:15.579Z,17.15
2022-11-03T22:48:45.641Z,14.00
2022-11-03T22:51:18.399Z,14.18
2022-11-03T22:54:04.518Z,15.30
2022-11-03T22:56:34.787Z,17.35
2022-11-03T22:59:03.793Z,18.73
2022-11-03T23:01:32.997Z,15.55
2022-11-03T23:04:02.571Z,15.38
2022-11-03T23:06:36.803Z,20.70
2022-11-03T23:09:06.863Z,20.58
2022-11-03T23:11:37.257Z,14.88
2022-11-03T23:14:07.825Z,16.70
2022-11-03T23:16:38.069Z,16.83
2022-11-03T23:19:24.802Z,16.83
2022-11-03T23:21:54.805Z,16.27
2022-11-03T23:24:45.066Z,17.52
2022-11-03T23:27:16.240Z,15.75
2022-11-03T23:29:44.783Z,20.90
2022-11-03T23:32:13.897Z,17.60
2022-11-03T23:34:42.688Z,17.42
2022-11-03T23:37:12.091Z,18.80
2022-11-03T23:39:43.611Z,15.45
2022-11-03T23:42:12.648Z,17.20
2022-11-03T23:45:00.335Z,17.30
2022-11-03T23:50:53.479Z,18.58
2022-11-03T23:53:26.355Z,14.18
2022-11-03T23:56:28.001Z,16.00
2022-11-03T23:59:15.540Z,15.32
